Time;durP1;ratioP1;P1;durP2;ratioP2;P2;SDS_P1;SDS_P2;PMS_P1;PMS_P2;Temp;Humidity;BMP_temperature;BMP_pressure;BME280_temperature;BME280_humidity;BME280_pressure;Samples;Min_cycle;Max_cycle;Signal;HPM_P1;HPM_P2
2022/08/14 00:00:13;;;;;;;4.40;3.22;;;15.70;99.90;;;;;;5092626;28;20111;-76
2022/08/14 00:02:39;;;;;;;3.17;2.88;;;15.80;99.90;;;;;;5092495;28;20077;-74
2022/08/14 00:05:08;;;;;;;4.80;3.50;;;15.70;99.90;;;;;;5092916;28;20048;-76
2022/08/14 00:07:34;;;;;;;4.85;3.38;;;15.80;99.90;;;;;;5092454;28;20028;-74
2022/08/14 00:10:01;;;;;;;4.35;3.03;;;15.70;99.90;;;;;;5092301;28;20162;-74
2022/08/14 00:12:27;;;;;;;6.10;2.95;;;15.70;99.90;;;;;;5092804;28;20107;-74
2022/08/14 00:14:53;;;;;;;3.53;2.75;;;15.70;99.90;;;;;;5092471;28;20154;-75
2022/08/14 00:17:18;;;;;;;3.97;3.15;;;15.70;99.90;;;;;;5092359;28;20107;-74
2022/08/14 00:19:44;;;;;;;3.53;3.08;;;15.70;99.90;;;;;;5092459;28;20062;-73
2022/08/14 00:22:11;;;;;;;5.78;3.05;;;15.70;99.90;;;;;;5092672;28;20027;-73
2022/08/14 00:24:36;;;;;;;4.22;3.40;;;15.70;99.90;;;;;;5092397;28;20047;-75
2022/08/14 00:27:02;;;;;;;6.40;2.55;;;15.60;99.90;;;;;;5092436;28;20021;-76
2022/08/14 00:29:31;;;;;;;3.33;3.03;;;15.60;99.90;;;;;;5092409;28;20085;-75
2022/08/14 00:31:57;;;;;;;2.97;2.67;;;15.60;99.90;;;;;;5074209;28;20016;-74
2022/08/14 00:34:23;;;;;;;3.30;3.00;;;15.50;99.90;;;;;;5092574;28;20089;-75
2022/08/14 00:36:49;;;;;;;5.65;3.13;;;15.50;99.90;;;;;;5092435;28;20008;-76
2022/08/14 00:39:15;;;;;;;6.10;3.38;;;15.40;99.90;;;;;;5092329;28;20027;-76
2022/08/14 00:41:41;;;;;;;4.15;3.75;;;15.40;99.90;;;;;;5091914;28;20024;-75
2022/08/14 00:44:06;;;;;;;3.75;3.38;;;15.40;99.90;;;;;;5091967;28;20042;-76
2022/08/14 00:46:32;;;;;;;3.60;3.00;;;15.40;99.90;;;;;;5092553;28;20140;-76
2022/08/14 00:48:58;;;;;;;4.28;3.60;;;15.40;99.90;;;;;;5092152;28;20091;-75
2022/08/14 00:51:24;;;;;;;3.50;2.70;;;15.40;99.90;;;;;;5092203;28;20052;-74
2022/08/14 00:53:50;;;;;;;3.00;2.70;;;15.40;99.90;;;;;;5091886;28;20047;-75
2022/08/14 00:56:17;;;;;;;3.83;3.53;;;15.40;99.90;;;;;;5091598;28;20099;-75
2022/08/14 00:58:45;;;;;;;5.05;3.20;;;15.30;99.90;;;;;;5091610;28;20024;-74
2022/08/14 01:01:13;;;;;;;3.70;3.35;;;15.30;99.90;;;;;;5091591;28;20015;-75
2022/08/14 01:03:40;;;;;;;3.47;2.83;;;15.30;99.90;;;;;;5091507;28;20506;-76
2022/08/14 01:06:07;;;;;;;4.45;3.20;;;15.30;99.90;;;;;;5091788;28;20091;-74
2022/08/14 01:08:34;;;;;;;4.95;3.00;;;15.30;99.90;;;;;;5091347;28;20170;-75
2022/08/14 01:11:03;;;;;;;6.05;3.58;;;15.30;99.90;;;;;;5091500;28;20020;-76
2022/08/14 01:13:33;;;;;;;3.38;2.88;;;15.20;99.90;;;;;;5091908;28;20012;-75
2022/08/14 01:16:01;;;;;;;3.22;2.92;;;15.10;99.90;;;;;;5091782;28;20024;-74
2022/08/14 01:21:15;;;;;;;4.03;3.65;;;15.10;99.90;;;;;;5093382;28;20047;-74
2022/08/14 01:23:50;;;;;;;3.72;3.42;;;15.10;99.90;;;;;;5095032;28;20073;-75
2022/08/14 01:26:19;;;;;;;3.58;3.28;;;15.00;99.90;;;;;;5095301;28;20495;-75
2022/08/14 01:28:47;;;;;;;7.10;3.45;;;15.00;99.90;;;;;;5094968;28;20408;-74
2022/08/14 01:31:18;;;;;;;3.75;3.08;;;14.90;99.90;;;;;;5077103;28;20077;-74
2022/08/14 01:33:46;;;;;;;3.63;3.33;;;14.90;99.90;;;;;;5076846;28;20023;-76
2022/08/14 01:36:19;;;;;;;3.55;2.95;;;14.90;99.90;;;;;;5094937;28;20024;-75
2022/08/14 01:38:47;;;;;;;5.32;3.25;;;14.80;99.90;;;;;;5094947;28;20107;-75
2022/08/14 01:41:15;;;;;;;3.35;3.05;;;14.70;99.90;;;;;;5094866;28;20032;-74
2022/08/14 01:43:47;;;;;;;2.97;2.70;;;14.80;99.90;;;;;;5094792;28;20035;-75
2022/08/14 01:46:17;;;;;;;4.50;3.58;;;14.80;99.90;;;;;;5076528;28;20479;-75
2022/08/14 01:48:44;;;;;;;3.63;3.25;;;14.80;99.90;;;;;;5095066;28;20468;-75
2022/08/14 01:51:11;;;;;;;3.60;3.08;;;14.80;99.90;;;;;;5094721;28;20030;-76
2022/08/14 01:53:40;;;;;;;4.78;3.58;;;14.80;99.90;;;;;;5094711;28;20074;-74
2022/08/14 01:56:06;;;;;;;3.80;3.30;;;14.70;99.90;;;;;;5094416;28;20062;-74
2022/08/14 01:58:32;;;;;;;5.25;4.10;;;14.70;99.90;;;;;;5094522;28;20114;-76
2022/08/14 02:00:58;;;;;;;6.93;3.90;;;14.70;99.90;;;;;;5094487;28;20094;-76
2022/08/14 02:03:31;;;;;;;6.00;4.30;;;14.70;99.90;;;;;;5094625;28;20506;-76
2022/08/14 02:05:58;;;;;;;4.60;4.15;;;14.70;99.90;;;;;;5094599;28;20052;-76
2022/08/14 02:08:29;;;;;;;5.93;4.22;;;14.60;99.90;;;;;;5094414;28;20451;-74
2022/08/14 02:14:04;;;;;;;4.22;3.53;;;14.40;99.90;;;;;;5031871;28;20033;-74
2022/08/14 02:16:35;;;;;;;5.10;4.38;;;14.40;99.90;;;;;;5083585;28;20480;-73
2022/08/14 02:19:05;;;;;;;4.32;3.92;;;14.40;99.90;;;;;;5094145;28;20600;-73
2022/08/14 02:21:31;;;;;;;5.05;4.40;;;14.40;99.90;;;;;;5093942;28;20047;-74
2022/08/14 02:24:00;;;;;;;4.78;4.18;;;14.40;99.90;;;;;;5093898;28;20059;-76
2022/08/14 02:26:29;;;;;;;3.92;3.53;;;14.50;99.90;;;;;;5076263;28;20445;-75
2022/08/14 02:29:00;;;;;;;5.18;4.20;;;14.40;99.90;;;;;;5093952;28;20503;-74
2022/08/14 02:31:31;;;;;;;4.05;3.65;;;14.40;99.90;;;;;;5093894;28;20418;-74
2022/08/14 02:33:58;;;;;;;5.20;4.38;;;14.30;99.90;;;;;;5093884;28;20571;-75
2022/08/14 02:36:25;;;;;;;5.03;4.03;;;14.30;99.90;;;;;;5093932;28;20024;-74
2022/08/14 02:38:52;;;;;;;5.20;3.80;;;14.30;99.90;;;;;;5075750;28;20497;-74
2022/08/14 02:41:18;;;;;;;4.32;3.72;;;14.20;99.90;;;;;;5093892;28;20028;-76
2022/08/14 02:43:44;;;;;;;5.28;4.78;;;14.20;99.90;;;;;;5075657;28;20032;-74
2022/08/14 02:46:10;;;;;;;8.80;4.80;;;14.30;99.90;;;;;;5093405;28;20091;-75
2022/08/14 02:48:38;;;;;;;6.10;4.30;;;14.20;99.90;;;;;;5093631;28;20089;-77
2022/08/14 02:51:13;;;;;;;7.15;4.03;;;14.30;99.90;;;;;;5093619;28;20024;-74
2022/08/14 02:53:43;;;;;;;6.53;4.72;;;14.30;99.90;;;;;;5093835;28;20099;-76
2022/08/14 02:56:10;;;;;;;8.30;4.00;;;14.30;99.90;;;;;;5093367;28;20032;-75
2022/08/14 02:58:38;;;;;;;4.57;4.10;;;14.20;99.90;;;;;;5093376;28;20070;-74
2022/08/14 03:01:08;;;;;;;4.80;3.72;;;14.20;99.90;;;;;;5075151;28;20051;-74
2022/08/14 03:03:35;;;;;;;5.05;3.67;;;14.20;99.90;;;;;;5093086;28;20148;-74
2022/08/14 03:06:06;;;;;;;4.88;4.07;;;14.10;99.90;;;;;;5093481;28;20016;-75
2022/08/14 03:08:32;;;;;;;4.78;4.00;;;14.10;99.90;;;;;;5093099;28;20016;-74
2022/08/14 03:11:11;;;;;;;5.10;4.30;;;14.10;99.90;;;;;;5074995;28;20043;-74
2022/08/14 03:13:43;;;;;;;4.65;3.72;;;14.00;99.90;;;;;;5093149;28;20107;-74
2022/08/14 03:16:14;;;;;;;4.57;3.50;;;14.00;99.90;;;;;;5093223;28;20023;-73
2022/08/14 03:18:44;;;;;;;4.60;3.55;;;14.00;99.90;;;;;;5092813;28;20375;-74
2022/08/14 03:21:13;;;;;;;9.45;4.22;;;13.90;99.90;;;;;;5093021;28;20040;-74
2022/08/14 03:23:40;;;;;;;4.53;3.92;;;13.90;99.90;;;;;;5092976;28;20126;-78
2022/08/14 03:26:08;;;;;;;3.83;3.45;;;13.80;99.90;;;;;;5093024;28;20425;-73
2022/08/14 03:28:33;;;;;;;5.95;4.35;;;13.80;99.90;;;;;;5092911;28;20027;-75
2022/08/14 03:30:59;;;;;;;4.80;4.30;;;13.90;99.90;;;;;;5092781;28;20024;-75
2022/08/14 03:33:26;;;;;;;8.23;4.28;;;13.90;99.90;;;;;;5091984;28;20024;-76
2022/08/14 03:35:53;;;;;;;7.32;4.13;;;13.90;99.90;;;;;;5092497;28;20028;-74
2022/08/14 03:38:19;;;;;;;6.72;4.03;;;13.80;99.90;;;;;;5092685;28;20024;-75
2022/08/14 03:40:49;;;;;;;5.15;4.05;;;13.80;99.90;;;;;;5092727;28;20023;-74
2022/08/14 03:43:15;;;;;;;4.43;3.97;;;13.90;99.90;;;;;;5091999;28;20131;-74
2022/08/14 03:45:43;;;;;;;4.75;4.22;;;13.90;99.90;;;;;;5074411;28;20111;-74
2022/08/14 03:48:18;;;;;;;5.32;4.38;;;13.90;99.90;;;;;;5092263;28;20021;-74
2022/08/14 03:50:46;;;;;;;10.82;4.40;;;13.90;99.90;;;;;;5092388;28;20024;-74
2022/08/14 03:53:12;;;;;;;6.30;4.57;;;13.90;99.90;;;;;;5092599;28;20120;-77
2022/08/14 03:55:39;;;;;;;5.25;4.32;;;13.90;99.90;;;;;;5092572;28;20027;-74
2022/08/14 03:58:09;;;;;;;6.65;4.93;;;13.90;99.90;;;;;;5092358;28;20515;-74
2022/08/14 04:00:36;;;;;;;7.10;4.28;;;13.90;99.90;;;;;;5074394;28;20031;-76
2022/08/14 04:03:08;;;;;;;5.55;4.03;;;14.00;99.90;;;;;;5092307;28;20046;-74
2022/08/14 04:05:36;;;;;;;5.93;3.78;;;14.00;99.90;;;;;;5092339;28;20035;-76
2022/08/14 04:08:02;;;;;;;4.75;4.30;;;14.00;99.90;;;;;;5092106;28;20040;-75
2022/08/14 04:10:28;;;;;;;4.32;3.85;;;13.90;99.90;;;;;;5092088;28;20464;-75
2022/08/14 04:12:58;;;;;;;5.28;3.63;;;13.90;99.90;;;;;;5092232;28;20073;-74
2022/08/14 04:15:25;;;;;;;4.55;3.80;;;14.00;99.90;;;;;;5092089;28;20020;-75
2022/08/14 04:17:52;;;;;;;4.80;3.72;;;14.00;99.90;;;;;;5092060;28;20024;-74
2022/08/14 04:20:19;;;;;;;5.13;4.32;;;14.00;99.90;;;;;;5074065;28;20059;-75
2022/08/14 04:22:44;;;;;;;5.82;3.70;;;14.00;99.90;;;;;;5092185;28;20478;-74
2022/08/14 04:25:10;;;;;;;4.82;3.97;;;14.00;99.90;;;;;;5091866;28;20043;-74
2022/08/14 04:27:36;;;;;;;4.43;3.88;;;14.10;99.90;;;;;;5091525;28;20089;-74
2022/08/14 04:30:04;;;;;;;4.35;3.17;;;14.10;99.90;;;;;;5092328;28;20112;-76
2022/08/14 04:32:30;;;;;;;7.18;4.07;;;14.10;99.90;;;;;;5074010;28;20051;-73
2022/08/14 04:34:55;;;;;;;5.65;5.05;;;15.30;99.90;;;;;;5091549;28;20128;-74
2022/08/14 04:45:41;;;;;;;5.47;3.20;;;17.60;99.90;;;;;;5092730;28;20047;-77
2022/08/14 04:48:14;;;;;;;4.90;3.58;;;17.60;99.90;;;;;;5092312;28;20017;-78
2022/08/14 04:50:45;;;;;;;7.80;3.13;;;18.00;99.90;;;;;;5092561;28;20050;-77
2022/08/14 04:53:18;;;;;;;4.68;3.45;;;18.10;99.90;;;;;;5087742;28;20028;-75
2022/08/14 04:55:47;;;;;;;5.13;3.58;;;18.10;99.90;;;;;;5095017;28;20020;-79
2022/08/14 04:58:17;;;;;;;3.45;3.15;;;18.10;99.90;;;;;;5096080;28;20043;-77
2022/08/14 05:00:50;;;;;;;3.28;2.97;;;18.10;99.90;;;;;;5078026;28;20028;-78
2022/08/14 05:03:25;;;;;;;3.60;3.22;;;17.80;99.90;;;;;;5095985;28;20080;-78
2022/08/14 05:05:53;;;;;;;3.78;3.40;;;17.90;99.90;;;;;;5096034;28;20024;-77
2022/08/14 05:08:19;;;;;;;4.30;3.90;;;17.50;99.90;;;;;;5095861;28;20028;-77
2022/08/14 05:10:50;;;;;;;5.22;3.47;;;17.20;99.90;;;;;;5077547;28;20141;-77
2022/08/14 05:13:20;;;;;;;3.80;3.50;;;17.10;99.90;;;;;;5095927;28;20016;-77
2022/08/14 05:15:47;;;;;;;5.95;3.33;;;16.90;99.90;;;;;;5077613;28;20035;-77
2022/08/14 05:18:17;;;;;;;4.93;3.50;;;17.00;99.90;;;;;;5077790;28;20115;-78
2022/08/14 05:20:45;;;;;;;4.32;3.63;;;17.10;99.90;;;;;;5077340;28;20069;-77
2022/08/14 05:23:13;;;;;;;3.30;2.85;;;17.20;99.90;;;;;;5077496;28;20061;-77
2022/08/14 05:25:39;;;;;;;3.85;3.42;;;17.40;99.90;;;;;;5077662;28;20028;-77
2022/08/14 05:28:07;;;;;;;4.88;3.60;;;17.40;99.90;;;;;;5077294;28;20506;-76
2022/08/14 05:30:32;;;;;;;4.40;4.00;;;17.30;99.90;;;;;;5095776;28;20027;-77
2022/08/14 05:33:00;;;;;;;5.05;4.20;;;17.60;99.90;;;;;;5095461;28;20017;-76
2022/08/14 05:35:26;;;;;;;6.55;4.85;;;17.70;99.90;;;;;;5095481;28;20024;-77
2022/08/14 05:37:52;;;;;;;6.75;3.42;;;17.70;99.90;;;;;;5095453;28;20024;-77
2022/08/14 05:40:18;;;;;;;4.78;4.30;;;17.60;99.90;;;;;;5095107;28;20105;-76
2022/08/14 05:42:44;;;;;;;4.78;4.30;;;17.50;99.90;;;;;;5095080;28;20052;-75
2022/08/14 05:45:10;;;;;;;3.85;3.53;;;17.50;99.90;;;;;;5076827;28;20043;-76
2022/08/14 05:47:40;;;;;;;4.35;3.80;;;17.20;99.90;;;;;;5076809;28;20027;-76
2022/08/14 05:50:08;;;;;;;8.65;4.60;;;17.00;99.90;;;;;;5094756;28;20024;-74
2022/08/14 05:52:34;;;;;;;6.22;4.72;;;16.90;99.90;;;;;;5094731;28;20077;-77
2022/08/14 05:54:59;;;;;;;4.88;4.03;;;16.80;99.90;;;;;;5094902;28;20464;-75
2022/08/14 05:57:25;;;;;;;4.25;3.85;;;16.90;99.90;;;;;;5095025;28;20047;-77
2022/08/14 05:59:51;;;;;;;5.13;4.57;;;16.90;99.90;;;;;;5094854;28;20433;-77
2022/08/14 06:02:17;;;;;;;5.97;4.60;;;17.00;99.90;;;;;;5094855;28;20016;-76
2022/08/14 06:04:47;;;;;;;5.40;4.90;;;17.20;99.90;;;;;;5076593;28;20372;-77
2022/08/14 06:07:13;;;;;;;7.50;4.57;;;17.40;99.90;;;;;;5075520;28;20028;-76
2022/08/14 06:09:39;;;;;;;5.22;4.75;;;17.40;99.90;;;;;;5094731;28;20048;-77
2022/08/14 06:12:06;;;;;;;5.25;4.43;;;17.50;99.90;;;;;;5093777;28;20078;-77
2022/08/14 06:14:32;;;;;;;5.97;4.57;;;17.50;99.90;;;;;;5093597;28;20028;-78
2022/08/14 06:16:58;;;;;;;4.20;3.75;;;17.60;99.90;;;;;;5093969;28;20028;-76
2022/08/14 06:19:23;;;;;;;9.73;4.90;;;17.70;99.90;;;;;;5093802;28;20110;-75
2022/08/14 06:21:50;;;;;;;5.80;4.93;;;17.80;99.90;;;;;;5094315;28;20519;-77
2022/08/14 06:24:16;;;;;;;4.85;4.35;;;17.90;99.90;;;;;;5093985;28;20032;-77
2022/08/14 06:26:41;;;;;;;5.45;4.47;;;18.10;99.90;;;;;;5094245;28;20144;-77
2022/08/14 06:29:09;;;;;;;4.97;4.47;;;18.30;99.90;;;;;;5093993;28;20027;-78
2022/08/14 06:31:34;;;;;;;4.35;3.92;;;18.30;99.90;;;;;;5094322;28;20023;-77
2022/08/14 06:34:00;;;;;;;5.35;4.82;;;18.50;99.90;;;;;;5093929;28;20028;-75
2022/08/14 06:36:26;;;;;;;9.48;5.22;;;18.50;99.90;;;;;;5094340;28;20028;-76
2022/08/14 06:38:52;;;;;;;6.03;4.72;;;18.70;99.90;;;;;;5075947;28;20035;-79
2022/08/14 06:41:17;;;;;;;5.47;4.93;;;18.80;99.90;;;;;;5094012;28;20020;-77
2022/08/14 06:43:43;;;;;;;7.25;4.68;;;18.90;99.90;;;;;;5076016;28;20544;-77
2022/08/14 06:46:08;;;;;;;5.30;4.03;;;19.10;99.90;;;;;;5094011;28;20063;-76
2022/08/14 06:48:34;;;;;;;4.88;4.20;;;19.30;99.90;;;;;;5094106;28;20374;-74
2022/08/14 06:51:00;;;;;;;4.40;3.97;;;19.50;99.90;;;;;;5094110;28;20028;-73
2022/08/14 06:53:25;;;;;;;4.22;3.83;;;19.70;99.90;;;;;;5076111;28;20028;-74
2022/08/14 06:55:52;;;;;;;3.33;3.03;;;19.90;99.90;;;;;;5094236;28;20016;-74
2022/08/14 06:58:18;;;;;;;3.85;3.33;;;20.60;99.90;;;;;;5094204;28;20024;-75
2022/08/14 07:05:45;;;;;;;3.60;3.30;;;20.50;99.90;;;;;;5094302;28;20024;-73
2022/08/14 07:06:16;;;;;;;5.55;3.95;;;21.30;99.90;;;;;;5094358;28;20035;-73
2022/08/14 07:08:43;;;;;;;4.18;3.78;;;21.50;99.90;;;;;;5094445;28;20036;-73
2022/08/14 07:11:09;;;;;;;4.03;3.63;;;21.60;99.90;;;;;;5094052;28;20036;-73
2022/08/14 07:13:35;;;;;;;4.28;3.65;;;21.80;99.90;;;;;;5093913;28;20063;-73
2022/08/14 07:16:01;;;;;;;3.95;3.55;;;22.00;99.90;;;;;;5093906;28;20055;-74
2022/08/14 07:18:28;;;;;;;3.53;3.22;;;22.10;99.90;;;;;;5093671;28;20028;-73
2022/08/14 07:20:56;;;;;;;5.07;3.53;;;22.30;99.20;;;;;;5075653;28;20090;-73
2022/08/14 07:23:22;;;;;;;4.00;3.70;;;22.50;99.00;;;;;;5075684;28;20060;-73
2022/08/14 07:25:51;;;;;;;7.45;4.18;;;22.70;98.70;;;;;;5075298;28;20385;-75
2022/08/14 07:28:23;;;;;;;5.50;3.78;;;22.80;97.80;;;;;;5093431;28;20040;-75
2022/08/14 07:30:51;;;;;;;4.13;3.72;;;22.90;97.10;;;;;;5093627;28;20020;-75
2022/08/14 07:33:16;;;;;;;4.07;3.38;;;23.10;96.80;;;;;;5093527;28;20020;-73
2022/08/14 07:35:42;;;;;;;7.88;3.20;;;23.30;95.30;;;;;;5093725;28;20047;-72
2022/08/14 07:38:15;;;;;;;5.07;3.40;;;23.30;94.00;;;;;;5093438;28;20103;-73
2022/08/14 07:40:41;;;;;;;7.15;3.25;;;23.50;94.10;;;;;;5093554;28;20032;-73
2022/08/14 07:43:07;;;;;;;4.38;3.50;;;23.60;94.00;;;;;;5093492;28;20020;-74
2022/08/14 07:45:32;;;;;;;3.60;3.25;;;23.80;92.70;;;;;;5093491;28;20032;-73
2022/08/14 07:47:58;;;;;;;3.35;2.78;;;23.90;92.80;;;;;;5093311;28;20066;-75
2022/08/14 07:50:24;;;;;;;4.22;3.33;;;24.00;91.90;;;;;;5093341;28;20159;-74
2022/08/14 07:52:49;;;;;;;3.30;3.00;;;24.00;91.50;;;;;;5093152;28;20368;-75
2022/08/14 07:55:17;;;;;;;7.32;3.42;;;24.10;90.90;;;;;;5093080;28;20467;-73
2022/08/14 07:57:44;;;;;;;3.97;3.05;;;24.20;90.00;;;;;;5093195;28;20486;-73
2022/08/14 08:00:15;;;;;;;3.70;3.00;;;24.30;90.20;;;;;;5093216;28;20464;-75
2022/08/14 08:02:45;;;;;;;4.55;3.15;;;24.50;96.10;;;;;;5093210;28;20107;-73
2022/08/14 08:05:12;;;;;;;3.50;3.20;;;24.70;86.90;;;;;;5093102;28;20490;-74
2022/08/14 08:07:39;;;;;;;6.20;2.67;;;24.70;86.10;;;;;;5093121;28;20016;-73
2022/08/14 08:10:29;;;;;;;9.85;3.38;;;24.70;86.60;;;;;;5093129;28;20032;-75
2022/08/14 08:12:55;;;;;;;3.17;2.88;;;24.80;85.10;;;;;;5092871;28;20027;-74
2022/08/14 08:15:27;;;;;;;3.45;3.03;;;24.80;85.10;;;;;;5093060;28;20024;-74
2022/08/14 08:17:53;;;;;;;3.67;2.72;;;25.00;84.30;;;;;;5093006;28;20056;-74
2022/08/14 08:20:23;;;;;;;4.32;3.58;;;25.10;84.20;;;;;;5092946;28;20044;-74
2022/08/14 08:22:53;;;;;;;5.43;3.95;;;25.20;83.50;;;;;;5092374;28;20028;-74
2022/08/14 08:25:18;;;;;;;2.95;2.67;;;25.20;82.50;;;;;;5092145;28;20032;-75
2022/08/14 08:27:57;;;;;;;3.22;2.85;;;25.30;80.80;;;;;;5092794;28;20035;-74
2022/08/14 08:30:23;;;;;;;3.47;2.47;;;25.40;80.80;;;;;;5097239;28;20032;-76
2022/08/14 08:32:52;;;;;;;3.15;2.67;;;25.50;81.50;;;;;;5099813;28;20024;-75
2022/08/14 08:35:23;;;;;;;3.38;2.60;;;25.50;81.60;;;;;;5099723;28;20020;-73
2022/08/14 08:37:49;;;;;;;3.13;2.83;;;25.60;81.00;;;;;;5099354;28;20020;-73
2022/08/14 08:40:27;;;;;;;2.70;2.45;;;25.70;79.30;;;;;;5099499;28;20021;-76
2022/08/14 08:42:52;;;;;;;5.25;2.78;;;25.70;80.30;;;;;;5099536;28;20077;-73
2022/08/14 08:45:20;;;;;;;3.85;2.67;;;25.80;81.10;;;;;;5081068;28;20036;-76
2022/08/14 08:47:47;;;;;;;3.95;3.15;;;25.90;81.10;;;;;;5100581;28;20027;-74
2022/08/14 08:50:20;;;;;;;4.10;3.22;;;26.00;80.70;;;;;;5080746;28;20032;-75
2022/08/14 08:52:48;;;;;;;2.70;2.47;;;26.00;79.70;;;;;;5099281;28;20419;-74
2022/08/14 08:55:15;;;;;;;2.88;2.63;;;26.00;80.60;;;;;;5099062;28;20052;-74
2022/08/14 08:57:41;;;;;;;3.65;2.47;;;26.10;80.20;;;;;;5098763;28;20093;-73
2022/08/14 09:00:17;;;;;;;3.00;2.70;;;26.20;80.10;;;;;;5098997;28;20063;-76
2022/08/14 09:02:58;;;;;;;3.55;2.85;;;26.20;78.80;;;;;;5098915;28;20453;-73
2022/08/14 09:05:24;;;;;;;3.80;2.97;;;26.30;79.40;;;;;;5098823;28;20055;-75
2022/08/14 09:07:50;;;;;;;3.20;2.90;;;26.40;77.50;;;;;;5099139;28;20020;-75
2022/08/14 09:10:16;;;;;;;3.28;2.97;;;26.50;78.00;;;;;;5080681;28;20081;-75
2022/08/14 09:12:42;;;;;;;4.70;2.50;;;26.60;77.40;;;;;;5098865;28;20024;-75
2022/08/14 09:15:08;;;;;;;3.50;3.17;;;26.50;76.20;;;;;;5098769;28;20057;-73
2022/08/14 09:17:35;;;;;;;3.00;2.67;;;26.50;77.50;;;;;;5098803;28;20016;-73
2022/08/14 09:20:01;;;;;;;3.47;3.13;;;26.50;77.40;;;;;;5098857;28;20131;-76
2022/08/14 09:22:27;;;;;;;3.50;2.85;;;26.60;78.10;;;;;;5098670;28;20078;-75
2022/08/14 09:24:53;;;;;;;3.70;3.08;;;26.70;77.60;;;;;;5098278;28;20055;-76
2022/08/14 09:27:19;;;;;;;3.05;2.75;;;26.70;77.20;;;;;;5098417;28;20463;-75
2022/08/14 09:29:44;;;;;;;3.10;2.75;;;26.90;78.30;;;;;;5080226;28;20031;-76
2022/08/14 09:32:19;;;;;;;3.83;3.13;;;27.00;77.30;;;;;;5099008;28;20040;-75
2022/08/14 09:35:02;;;;;;;4.88;2.60;;;27.10;76.60;;;;;;5098292;28;20069;-77
2022/08/14 09:37:43;;;;;;;3.38;2.60;;;27.00;75.80;;;;;;5098273;28;20024;-77
2022/08/14 09:40:19;;;;;;;3.05;2.75;;;27.10;76.40;;;;;;5098157;28;20028;-75
2022/08/14 09:42:57;;;;;;;3.38;3.03;;;27.20;76.60;;;;;;5075649;28;20024;-77
2022/08/14 09:45:47;;;;;;;2.97;2.70;;;27.20;75.40;;;;;;5095085;28;20519;-77
2022/08/14 09:48:16;;;;;;;6.28;2.90;;;27.20;76.00;;;;;;5095146;28;20043;-73
2022/08/14 09:50:51;;;;;;;3.75;3.00;;;27.20;74.90;;;;;;5096785;28;20472;-73
2022/08/14 09:53:35;;;;;;;;;;;27.20;75.90;;;;;;5097745;28;20103;-73
2022/08/14 09:56:03;;;;;;;3.35;3.00;;;27.40;74.60;;;;;;5095013;28;19911;-73
2022/08/14 09:58:45;;;;;;;3.10;2.80;;;27.50;74.60;;;;;;5095484;28;20034;-75
2022/08/14 10:01:15;;;;;;;2.60;2.40;;;27.50;74.80;;;;;;5095014;28;20375;-74
2022/08/14 10:03:54;;;;;;;3.13;2.58;;;27.60;74.90;;;;;;5077128;28;20387;-74
2022/08/14 10:06:26;;;;;;;3.28;3.00;;;27.70;72.90;;;;;;5094901;28;20038;-73
2022/08/14 10:09:02;;;;;;;3.67;2.72;;;27.50;72.30;;;;;;5077010;28;20387;-76
2022/08/14 10:11:35;;;;;;;4.45;2.60;;;27.10;73.80;;;;;;5095096;28;20028;-73
2022/08/14 10:14:18;;;;;;;4.63;2.67;;;26.90;75.80;;;;;;5095057;28;20026;-75
2022/08/14 10:16:53;;;;;;;2.50;2.30;;;26.90;76.60;;;;;;5094282;28;20475;-75
2022/08/14 10:19:21;;;;;;;2.80;2.50;;;27.10;75.80;;;;;;5094328;28;20020;-75
2022/08/14 10:22:09;;;;;;;3.42;2.85;;;27.20;73.90;;;;;;5094873;28;20043;-77
2022/08/14 10:24:45;;;;;;;3.05;2.10;;;27.20;74.70;;;;;;5094206;28;20028;-76
2022/08/14 10:27:17;;;;;;;4.40;2.70;;;27.40;74.30;;;;;;5094401;28;20057;-74
2022/08/14 10:29:59;;;;;;;3.33;2.80;;;27.70;75.00;;;;;;5094182;28;20451;-75
2022/08/14 10:32:26;;;;;;;2.88;2.45;;;27.90;72.30;;;;;;5094724;28;20235;-74
2022/08/14 10:35:06;;;;;;;4.35;2.70;;;27.80;73.20;;;;;;5094147;28;20095;-74
2022/08/14 10:37:40;;;;;;;3.00;2.65;;;27.90;71.70;;;;;;5094148;28;20031;-74
2022/08/14 10:40:06;;;;;;;3.38;3.17;;;27.90;72.10;;;;;;5094086;28;20059;-75
2022/08/14 10:42:40;;;;;;;2.63;2.42;;;28.00;71.70;;;;;;5094417;28;20028;-75
2022/08/14 10:45:20;;;;;;;5.68;2.88;;;27.90;72.10;;;;;;5094297;28;20125;-76
2022/08/14 10:47:46;;;;;;;3.20;2.55;;;28.10;71.00;;;;;;5094163;28;20103;-78
2022/08/14 10:50:15;;;;;;;2.28;2.08;;;28.30;70.90;;;;;;5094308;28;20056;-74
2022/08/14 10:52:41;;;;;;;2.47;2.17;;;28.40;69.40;;;;;;5075616;28;20028;-76
2022/08/14 10:55:13;;;;;;;4.43;2.30;;;28.30;69.10;;;;;;5075159;28;20028;-76
2022/08/14 10:57:51;;;;;;;2.28;2.13;;;28.00;70.00;;;;;;5094268;28;20016;-75
2022/08/14 11:00:25;;;;;;;2.50;2.30;;;28.00;71.00;;;;;;5093403;28;20849;-76
2022/08/14 11:03:08;;;;;;;2.50;2.30;;;28.10;72.10;;;;;;5094251;28;20073;-77
2022/08/14 11:05:42;;;;;;;2.80;2.17;;;28.40;69.90;;;;;;5093813;28;20040;-76
2022/08/14 11:08:08;;;;;;;2.40;2.20;;;28.70;70.00;;;;;;5094200;28;20675;-75
2022/08/14 11:11:07;;;;;;;2.03;1.92;;;28.90;69.80;;;;;;5094026;28;20027;-77
2022/08/14 11:13:32;;;;;;;2.78;2.58;;;28.90;69.40;;;;;;5049346;28;20039;-77
2022/08/14 11:16:00;;;;;;;2.80;2.60;;;28.90;69.00;;;;;;5093995;28;20024;-76
2022/08/14 11:18:27;;;;;;;1.88;1.75;;;28.80;68.90;;;;;;5093874;28;20381;-75
2022/08/14 11:20:55;;;;;;;3.17;2.20;;;28.70;68.80;;;;;;5093948;28;20054;-77
2022/08/14 11:23:26;;;;;;;2.65;2.40;;;28.50;69.00;;;;;;5093927;28;20040;-77
2022/08/14 11:25:53;;;;;;;4.50;2.60;;;28.40;68.70;;;;;;5093897;28;20035;-76
2022/08/14 11:28:22;;;;;;;2.38;2.13;;;28.20;69.30;;;;;;5093385;28;20032;-75
2022/08/14 11:30:49;;;;;;;2.33;2.13;;;27.90;70.30;;;;;;5093022;28;20476;-77
2022/08/14 11:33:15;;;;;;;2.33;2.22;;;27.80;70.00;;;;;;5094415;28;20028;-77
2022/08/14 11:35:42;;;;;;;3.10;2.40;;;27.70;89.50;;;;;;5093407;28;20079;-75
2022/08/14 11:38:09;;;;;;;2.65;2.42;;;27.50;77.70;;;;;;5093385;28;20052;-76
2022/08/14 11:40:37;;;;;;;2.20;2.00;;;27.40;72.10;;;;;;5093252;28;20031;-75
2022/08/14 11:43:05;;;;;;;2.88;2.22;;;27.30;70.40;;;;;;5093086;28;20458;-76
2022/08/14 11:45:36;;;;;;;2.53;2.33;;;27.30;70.00;;;;;;5093138;28;20035;-75
2022/08/14 11:48:16;;;;;;;2.60;2.40;;;27.30;74.10;;;;;;5093440;28;20023;-75
2022/08/14 11:50:42;;;;;;;4.30;1.98;;;27.20;74.40;;;;;;5092867;28;20023;-75
2022/08/14 11:53:29;;;;;;;1.80;1.70;;;27.20;72.90;;;;;;5093014;28;20016;-74
2022/08/14 11:56:01;;;;;;;3.75;2.45;;;27.20;72.40;;;;;;5093066;28;20450;-76
2022/08/14 11:58:29;;;;;;;2.30;2.03;;;27.30;71.00;;;;;;5092694;28;20360;-76
2022/08/14 12:01:01;;;;;;;4.70;2.65;;;27.50;70.80;;;;;;5093217;28;20114;-74
2022/08/14 12:03:41;;;;;;;2.75;2.30;;;27.70;71.70;;;;;;5092641;28;20077;-75
2022/08/14 12:06:12;;;;;;;2.72;2.40;;;27.80;70.10;;;;;;5092473;28;20479;-77
2022/08/14 12:08:39;;;;;;;2.85;2.15;;;28.00;69.40;;;;;;5092527;28;20020;-75
2022/08/14 12:11:06;;;;;;;3.17;2.20;;;28.10;69.10;;;;;;5092893;28;20398;-74
2022/08/14 12:13:33;;;;;;;3.03;2.55;;;28.20;70.10;;;;;;5092693;28;20016;-75
2022/08/14 12:16:11;;;;;;;2.22;2.05;;;28.00;68.50;;;;;;5092331;28;20028;-77
2022/08/14 12:18:42;;;;;;;2.55;2.35;;;28.00;69.70;;;;;;5092527;28;20028;-76
2022/08/14 12:21:18;;;;;;;2.40;2.20;;;28.10;69.90;;;;;;5091960;28;20194;-78
2022/08/14 12:23:46;;;;;;;3.63;2.60;;;28.30;71.60;;;;;;5073876;28;20035;-76
2022/08/14 12:26:19;;;;;;;3.72;2.70;;;28.70;69.00;;;;;;5092577;28;20475;-79
2022/08/14 12:28:48;;;;;;;2.40;2.20;;;29.00;68.30;;;;;;5092813;28;20019;-78
2022/08/14 12:31:16;;;;;;;2.80;2.28;;;29.20;67.30;;;;;;5092477;28;20028;-76
2022/08/14 12:33:53;;;;;;;2.33;2.13;;;29.20;66.90;;;;;;5092555;28;20020;-75
2022/08/14 12:36:20;;;;;;;2.42;2.20;;;29.30;66.90;;;;;;5092700;28;20031;-76
2022/08/14 12:38:47;;;;;;;3.47;2.40;;;29.00;67.10;;;;;;5092529;28;20031;-77
2022/08/14 12:41:23;;;;;;;1.95;1.77;;;28.90;66.90;;;;;;5092510;28;20111;-76
2022/08/14 12:44:02;;;;;;;3.50;2.35;;;28.60;67.80;;;;;;5092414;28;20026;-76
2022/08/14 12:46:40;;;;;;;2.50;2.30;;;28.60;69.00;;;;;;5092737;28;20378;-76
2022/08/14 12:49:15;;;;;;;2.75;2.55;;;28.50;69.10;;;;;;5092273;28;20013;-76
2022/08/14 12:51:40;;;;;;;;;;;28.40;70.00;;;;;;5093067;28;20031;-74
2022/08/14 12:54:16;;;;;;;3.15;2.47;;;28.30;70.50;;;;;;5092227;28;19904;-77
2022/08/14 12:56:43;;;;;;;3.42;2.28;;;28.30;70.00;;;;;;5092268;28;20035;-76
2022/08/14 12:59:09;;;;;;;2.58;2.38;;;28.20;70.00;;;;;;5091881;28;20367;-77
2022/08/14 13:01:35;;;;;;;2.35;2.15;;;28.20;80.80;;;;;;5092254;28;20026;-76
2022/08/14 13:04:06;;;;;;;4.13;2.75;;;28.00;72.30;;;;;;5092339;28;20028;-75
2022/08/14 13:06:36;;;;;;;3.47;2.22;;;27.90;77.00;;;;;;5092284;28;20375;-77
2022/08/14 13:09:03;;;;;;;2.60;2.40;;;27.80;91.50;;;;;;5092457;28;20057;-76
2022/08/14 13:11:43;;;;;;;4.30;2.67;;;27.80;91.90;;;;;;5092442;28;20433;-74
2022/08/14 13:14:12;;;;;;;2.67;2.47;;;27.60;91.10;;;;;;5092270;28;20095;-77